createdAt,value
2022-09-12T00:01:13.619Z,1.90
2022-09-12T00:04:52.220Z,2.00
2022-09-12T00:08:30.129Z,2.10
2022-09-12T00:12:08.417Z,1.50
2022-09-12T00:15:45.466Z,2.20
2022-09-12T00:19:22.873Z,2.20
2022-09-12T00:23:01.230Z,2.00
2022-09-12T00:26:39.245Z,2.10
2022-09-12T00:30:16.701Z,1.80
2022-09-12T00:33:57.467Z,2.20
2022-09-12T00:37:35.493Z,2.90
2022-09-12T00:41:31.863Z,2.70
2022-09-12T00:45:23.328Z,2.20
2022-09-12T00:48:56.077Z,2.10
2022-09-12T00:52:57.057Z,1.90
2022-09-12T00:56:36.919Z,2.20
2022-09-12T01:00:17.639Z,1.60
2022-09-12T01:03:54.590Z,2.00
2022-09-12T01:07:39.863Z,1.70
2022-09-12T01:11:21.094Z,1.60
2022-09-12T01:14:58.709Z,1.70
2022-09-12T01:18:50.683Z,1.40
2022-09-12T01:22:28.338Z,1.40
2022-09-12T01:26:11.274Z,2.10
2022-09-12T01:30:16.536Z,1.10
2022-09-12T01:34:16.813Z,1.20
2022-09-12T01:38:04.791Z,1.10
2022-09-12T01:42:02.410Z,1.10
2022-09-12T01:46:00.713Z,0.90
2022-09-12T01:50:01.895Z,1.00
2022-09-12T01:53:48.332Z,1.10
2022-09-12T01:57:32.514Z,1.00
2022-09-12T02:01:27.743Z,0.90
2022-09-12T02:05:11.429Z,0.90
2022-09-12T02:08:57.812Z,1.00
2022-09-12T02:12:50.183Z,0.70
2022-09-12T02:16:37.283Z,0.80
2022-09-12T02:20:43.988Z,1.00
2022-09-12T02:24:21.815Z,0.70
2022-09-12T02:28:07.106Z,0.90
2022-09-12T02:31:52.266Z,0.90
2022-09-12T02:35:33.207Z,0.90
2022-09-12T02:39:10.186Z,0.80
2022-09-12T02:42:47.631Z,0.80
2022-09-12T02:46:41.137Z,0.90
2022-09-12T02:50:18.566Z,1.20
2022-09-12T02:53:56.366Z,1.00
2022-09-12T02:57:33.925Z,0.90
2022-09-12T03:01:26.827Z,0.90
2022-09-12T03:05:14.081Z,0.90
2022-09-12T03:08:55.930Z,0.90
2022-09-12T03:12:54.723Z,1.00
2022-09-12T03:17:05.233Z,1.30
2022-09-12T03:20:57.842Z,1.00
2022-09-12T03:24:43.379Z,1.10
2022-09-12T03:28:23.128Z,1.30
2022-09-12T03:32:01.056Z,1.00
2022-09-12T03:35:39.658Z,1.10
2022-09-12T03:39:17.614Z,1.00
2022-09-12T03:42:55.624Z,0.90
2022-09-12T03:46:33.744Z,1.20
2022-09-12T03:50:11.237Z,1.00
2022-09-12T03:53:49.268Z,1.20
2022-09-12T03:57:28.072Z,1.00
2022-09-12T04:01:14.476Z,1.10
2022-09-12T04:04:52.379Z,1.00
2022-09-12T04:08:29.970Z,1.00
2022-09-12T04:12:07.367Z,1.10
2022-09-12T04:15:56.963Z,1.00
2022-09-12T04:19:35.069Z,1.10
2022-09-12T04:23:11.999Z,1.20
2022-09-12T04:26:49.364Z,1.20
2022-09-12T04:30:28.276Z,1.10
2022-09-12T04:34:06.914Z,1.10
2022-09-12T04:37:44.038Z,1.30
2022-09-12T04:41:27.962Z,0.80
2022-09-12T04:45:06.885Z,1.00
2022-09-12T04:48:44.981Z,1.20
2022-09-12T04:52:22.997Z,1.20
2022-09-12T04:56:05.249Z,1.00
2022-09-12T04:59:43.028Z,1.10
2022-09-12T05:03:20.096Z,1.10
2022-09-12T05:06:57.053Z,1.30
2022-09-12T05:10:35.881Z,1.30
2022-09-12T05:14:13.273Z,1.30
2022-09-12T05:17:50.211Z,1.20
2022-09-12T05:21:46.905Z,1.30
2022-09-12T05:25:05.145Z,1.20
2022-09-12T05:28:43.551Z,1.10
2022-09-12T05:32:21.797Z,1.20
2022-09-12T05:35:59.346Z,1.40
2022-09-12T05:39:37.250Z,1.60
2022-09-12T05:43:14.990Z,1.60
2022-09-12T05:46:53.017Z,1.20
2022-09-12T05:50:30.974Z,1.10
2022-09-12T05:54:11.374Z,1.40
2022-09-12T05:57:48.565Z,1.20
2022-09-12T06:01:28.033Z,1.40
2022-09-12T06:05:08.607Z,1.20
2022-09-12T06:08:49.203Z,1.40
2022-09-12T06:12:29.708Z,1.30
2022-09-12T06:16:09.944Z,1.10
2022-09-12T06:19:47.444Z,1.30
2022-09-12T06:23:25.267Z,1.40
2022-09-12T06:27:02.976Z,1.30
2022-09-12T06:30:40.596Z,1.30
2022-09-12T06:34:18.400Z,1.20
2022-09-12T06:37:56.200Z,1.20
2022-09-12T06:41:34.838Z,1.10
2022-09-12T06:45:15.293Z,1.30
2022-09-12T06:48:55.793Z,1.20
2022-09-12T06:52:32.955Z,1.50
2022-09-12T06:56:17.268Z,1.30
2022-09-12T06:59:57.609Z,1.70
2022-09-12T07:03:36.994Z,1.60
2022-09-12T07:07:14.255Z,1.70
2022-09-12T07:10:51.562Z,1.50
2022-09-12T07:14:29.082Z,1.70
2022-09-12T07:18:07.561Z,2.20
2022-09-12T07:21:45.982Z,1.40
2022-09-12T07:25:23.479Z,1.60
2022-09-12T07:29:25.155Z,1.50
2022-09-12T07:32:59.001Z,1.70
2022-09-12T07:36:37.723Z,1.70
2022-09-12T07:40:15.682Z,1.90
2022-09-12T07:43:55.208Z,2.00
2022-09-12T07:47:33.504Z,2.00
2022-09-12T07:51:12.501Z,1.90
2022-09-12T07:54:50.266Z,2.00
2022-09-12T07:58:30.387Z,2.00
2022-09-12T08:02:16.813Z,2.20
2022-09-12T08:05:55.044Z,1.70
2022-09-12T08:09:33.002Z,1.40
2022-09-12T08:13:12.183Z,1.30
2022-09-12T08:16:49.335Z,1.30
2022-09-12T08:20:28.518Z,1.20
2022-09-12T08:24:07.752Z,1.30
2022-09-12T08:27:46.351Z,0.90
2022-09-12T08:31:26.534Z,1.20
2022-09-12T08:35:06.141Z,1.30
2022-09-12T08:38:45.990Z,0.90
2022-09-12T08:42:52.887Z,1.10
2022-09-12T08:46:42.424Z,1.20
2022-09-12T08:50:23.145Z,1.20
2022-09-12T08:54:04.696Z,1.20
2022-09-12T08:57:43.381Z,1.10
2022-09-12T09:01:31.025Z,1.50
2022-09-12T09:05:30.333Z,1.60
2022-09-12T09:09:19.251Z,1.40
2022-09-12T09:13:06.184Z,1.50
2022-09-12T09:16:46.730Z,1.40
2022-09-12T09:20:43.904Z,1.20
2022-09-12T09:24:28.406Z,1.30
2022-09-12T09:28:13.879Z,1.60
2022-09-12T09:32:00.588Z,1.30
2022-09-12T09:35:52.406Z,0.90
2022-09-12T09:39:36.831Z,1.30
2022-09-12T09:43:22.206Z,1.20
2022-09-12T09:47:01.702Z,1.20
2022-09-12T09:50:39.933Z,1.30
2022-09-12T09:54:23.482Z,1.40
2022-09-12T09:58:01.397Z,1.00
2022-09-12T10:01:48.022Z,1.90
2022-09-12T10:05:26.099Z,1.30
2022-09-12T10:09:15.564Z,1.60
2022-09-12T10:13:08.483Z,1.60
2022-09-12T10:16:52.473Z,1.20
2022-09-12T10:20:41.652Z,1.40
2022-09-12T10:24:28.078Z,1.50
2022-09-12T10:28:20.717Z,1.90
2022-09-12T10:32:02.204Z,1.40
2022-09-12T10:35:47.972Z,1.50
2022-09-12T10:39:26.447Z,1.30
2022-09-12T10:43:18.270Z,1.50
2022-09-12T10:46:59.107Z,1.90
2022-09-12T10:50:43.998Z,1.80
2022-09-12T10:54:26.308Z,1.80
2022-09-12T10:58:04.484Z,1.50
2022-09-12T11:01:47.021Z,1.50
2022-09-12T11:05:53.134Z,1.50
2022-09-12T11:09:40.174Z,1.40
2022-09-12T11:13:36.822Z,1.60
2022-09-12T11:17:36.344Z,1.60
2022-09-12T11:21:16.997Z,1.50
2022-09-12T11:25:13.369Z,1.60
2022-09-12T11:28:57.904Z,1.40
2022-09-12T11:33:09.638Z,1.30
2022-09-12T11:37:02.624Z,1.70
2022-09-12T11:40:43.532Z,1.60
2022-09-12T11:44:40.287Z,1.60
2022-09-12T11:48:30.027Z,1.50
2022-09-12T11:52:20.445Z,1.40
2022-09-12T11:56:08.342Z,1.80
2022-09-12T12:00:01.214Z,1.50
2022-09-12T12:03:44.203Z,1.80
2022-09-12T12:07:23.017Z,1.70
2022-09-12T12:11:03.758Z,1.50
2022-09-12T12:14:46.644Z,1.40
2022-09-12T12:18:32.412Z,1.80
2022-09-12T12:22:24.809Z,1.80
2022-09-12T12:26:04.013Z,1.90
2022-09-12T12:29:46.097Z,1.30
2022-09-12T12:33:27.010Z,1.70
2022-09-12T12:37:20.116Z,1.60
2022-09-12T12:41:43.136Z,1.50
2022-09-12T12:45:27.145Z,1.50
2022-09-12T12:49:28.454Z,1.60
2022-09-12T12:53:28.021Z,1.60
2022-09-12T12:57:20.496Z,1.90
2022-09-12T13:01:13.513Z,1.20
2022-09-12T13:04:52.801Z,1.20
2022-09-12T13:08:33.235Z,1.20
2022-09-12T13:12:18.977Z,1.40
2022-09-12T13:15:57.796Z,1.50
2022-09-12T13:19:38.112Z,1.60
2022-09-12T13:23:32.091Z,1.80
2022-09-12T13:27:25.542Z,1.90
2022-09-12T13:31:26.680Z,1.30
2022-09-12T13:35:25.887Z,1.80
2022-09-12T13:39:15.781Z,1.60
2022-09-12T13:43:09.418Z,1.50
2022-09-12T13:46:49.903Z,1.70
2022-09-12T13:50:37.514Z,5.10
2022-09-12T13:54:23.838Z,1.80
2022-09-12T13:58:07.657Z,1.40
2022-09-12T14:01:47.506Z,1.80
2022-09-12T14:05:26.985Z,2.00
2022-09-12T14:09:14.042Z,1.70
2022-09-12T14:12:51.595Z,1.60
2022-09-12T14:16:32.653Z,1.40
2022-09-12T14:20:16.607Z,1.40
2022-09-12T14:23:54.882Z,1.30
2022-09-12T14:27:40.913Z,1.20
2022-09-12T14:31:38.662Z,1.40
2022-09-12T14:35:20.446Z,1.30
2022-09-12T14:39:04.632Z,1.40
2022-09-12T14:42:42.726Z,1.20
2022-09-12T14:46:27.111Z,1.50
2022-09-12T14:50:16.318Z,1.30
2022-09-12T14:53:54.745Z,1.60
2022-09-12T14:57:40.722Z,1.30
2022-09-12T15:01:19.574Z,1.50
2022-09-12T15:05:09.405Z,1.70
2022-09-12T15:08:48.493Z,1.90
2022-09-12T15:12:27.163Z,1.70
2022-09-12T15:16:04.932Z,1.50
2022-09-12T15:19:43.002Z,2.00
2022-09-12T15:23:41.571Z,1.70
2022-09-12T15:27:20.191Z,2.00
2022-09-12T15:31:05.468Z,1.70
2022-09-12T15:34:43.407Z,1.90
2022-09-12T15:38:26.160Z,1.60
2022-09-12T15:42:06.056Z,1.90
2022-09-12T15:45:45.017Z,2.20
2022-09-12T15:49:23.041Z,1.90
2022-09-12T15:53:00.911Z,2.10
2022-09-12T15:56:38.705Z,1.80
2022-09-12T16:00:18.767Z,2.00
2022-09-12T16:03:57.152Z,1.90
2022-09-12T16:07:35.410Z,1.90
2022-09-12T16:11:25.973Z,1.80
2022-09-12T16:15:08.311Z,2.00
2022-09-12T16:18:41.225Z,1.90
2022-09-12T16:22:19.541Z,2.40
2022-09-12T16:26:01.585Z,2.00
2022-09-12T16:29:39.255Z,2.10
2022-09-12T16:33:17.051Z,2.50
2022-09-12T16:36:54.134Z,1.90
2022-09-12T16:40:32.349Z,1.90
2022-09-12T16:44:10.910Z,1.90
2022-09-12T16:47:48.678Z,1.90
2022-09-12T16:51:33.157Z,2.10
2022-09-12T16:55:10.322Z,2.50
2022-09-12T16:58:47.867Z,2.30
2022-09-12T17:02:24.837Z,2.10
2022-09-12T17:06:08.528Z,2.30
2022-09-12T17:09:47.985Z,2.30
2022-09-12T17:13:36.698Z,2.40
2022-09-12T17:17:23.903Z,2.30
2022-09-12T17:21:02.258Z,2.60
2022-09-12T17:24:40.320Z,2.50
2022-09-12T17:28:18.951Z,2.40
2022-09-12T17:31:56.969Z,2.40
2022-09-12T17:35:35.479Z,2.80
2022-09-12T17:39:14.345Z,2.50
2022-09-12T17:42:52.365Z,3.30
2022-09-12T17:46:34.384Z,2.50
2022-09-12T17:50:30.811Z,3.20
2022-09-12T17:54:16.207Z,3.00
2022-09-12T17:57:53.316Z,2.80
2022-09-12T18:01:30.824Z,3.40
2022-09-12T18:05:09.457Z,3.30
2022-09-12T18:08:47.265Z,2.80
2022-09-12T18:12:25.611Z,2.90
2022-09-12T18:16:08.408Z,2.60
2022-09-12T18:19:49.275Z,2.90
2022-09-12T18:23:31.384Z,3.00
2022-09-12T18:27:09.051Z,2.80
2022-09-12T18:30:47.328Z,3.20
2022-09-12T18:34:25.454Z,2.60
2022-09-12T18:38:02.648Z,3.40
2022-09-12T18:41:41.023Z,3.50
2022-09-12T18:45:19.410Z,3.30
2022-09-12T18:48:59.151Z,3.20
2022-09-12T18:52:37.166Z,3.10
2022-09-12T18:56:14.681Z,3.60
2022-09-12T18:59:52.721Z,3.50
2022-09-12T19:03:30.583Z,2.90
2022-09-12T19:07:09.273Z,3.60
2022-09-12T19:10:56.239Z,3.60
2022-09-12T19:14:33.697Z,3.40
2022-09-12T19:18:10.984Z,3.40
2022-09-12T19:21:48.907Z,3.20
2022-09-12T19:25:26.984Z,4.10
2022-09-12T19:29:08.632Z,3.50
2022-09-12T19:32:46.074Z,3.60
2022-09-12T19:36:44.306Z,3.80
2022-09-12T19:40:22.027Z,3.20
2022-09-12T19:44:02.527Z,4.50
2022-09-12T19:47:42.913Z,3.60
2022-09-12T19:51:18.073Z,3.60
2022-09-12T19:54:55.732Z,3.90
2022-09-12T19:58:41.638Z,4.10
2022-09-12T20:02:19.489Z,4.30
2022-09-12T20:06:05.304Z,4.20
2022-09-12T20:09:42.604Z,3.80
2022-09-12T20:13:21.241Z,3.70
2022-09-12T20:16:59.096Z,3.50
2022-09-12T20:20:37.355Z,3.70
2022-09-12T20:24:14.979Z,4.00
2022-09-12T20:28:00.139Z,4.00
2022-09-12T20:31:30.592Z,4.10
2022-09-12T20:35:09.399Z,3.80
2022-09-12T20:38:51.856Z,3.70
2022-09-12T20:42:31.375Z,3.70
2022-09-12T20:46:11.294Z,4.60
2022-09-12T20:49:48.839Z,3.90
2022-09-12T20:53:30.556Z,3.80
2022-09-12T20:57:10.293Z,4.10
2022-09-12T21:00:48.117Z,4.60
2022-09-12T21:04:25.066Z,3.60
2022-09-12T21:08:02.776Z,3.90
2022-09-12T21:11:40.654Z,3.50
2022-09-12T21:15:17.767Z,4.10
2022-09-12T21:18:58.484Z,4.00
2022-09-12T21:22:36.197Z,3.90
2022-09-12T21:26:13.958Z,3.80
2022-09-12T21:29:52.949Z,3.30
2022-09-12T21:33:30.664Z,4.70
2022-09-12T21:37:08.649Z,4.00
2022-09-12T21:40:47.302Z,4.70
2022-09-12T21:44:26.216Z,5.50
2022-09-12T21:48:05.464Z,4.90
2022-09-12T21:51:42.916Z,4.50
2022-09-12T21:55:20.115Z,4.10
2022-09-12T21:58:57.155Z,4.30
2022-09-12T22:02:34.253Z,3.90
2022-09-12T22:06:11.910Z,3.90
2022-09-12T22:09:50.370Z,4.70
2022-09-12T22:13:27.886Z,4.70
2022-09-12T22:17:09.677Z,3.90
2022-09-12T22:20:46.848Z,4.40
2022-09-12T22:24:25.261Z,5.20
2022-09-12T22:28:02.915Z,4.60
2022-09-12T22:31:40.721Z,4.20
2022-09-12T22:35:19.656Z,4.60
2022-09-12T22:38:57.854Z,4.00
2022-09-12T22:42:36.066Z,4.00
2022-09-12T22:46:13.853Z,4.30
2022-09-12T22:49:51.950Z,4.50
2022-09-12T22:53:29.664Z,4.30
2022-09-12T22:57:07.624Z,4.10
2022-09-12T23:00:47.605Z,3.80
2022-09-12T23:04:25.513Z,4.40
2022-09-12T23:08:03.820Z,4.00
2022-09-12T23:11:42.662Z,3.90
2022-09-12T23:15:19.808Z,3.20
2022-09-12T23:18:58.645Z,3.40
2022-09-12T23:22:37.073Z,3.50
2022-09-12T23:26:20.486Z,3.10
2022-09-12T23:30:01.366Z,3.10
2022-09-12T23:33:36.405Z,3.10
2022-09-12T23:37:13.478Z,3.60
2022-09-12T23:40:51.052Z,3.30
2022-09-12T23:44:28.868Z,2.90
2022-09-12T23:48:06.162Z,3.30
2022-09-12T23:51:43.444Z,3.30
2022-09-12T23:55:21.637Z,2.60
2022-09-12T23:58:59.793Z,3.20
